createdAt,value
2022-09-17T00:01:46.289Z,13.32
2022-09-17T00:06:49.828Z,14.43
2022-09-17T00:11:54.888Z,13.52
2022-09-17T00:17:01.796Z,14.80
2022-09-17T00:22:05.745Z,11.95
2022-09-17T00:27:10.694Z,13.07
2022-09-17T00:32:14.273Z,13.48
2022-09-17T00:37:17.871Z,11.82
2022-09-17T00:42:24.613Z,10.98
2022-09-17T00:47:34.771Z,12.03
2022-09-17T00:52:44.396Z,12.10
2022-09-17T00:57:51.114Z,12.38
2022-09-17T01:02:56.187Z,12.07
2022-09-17T01:08:11.664Z,10.15
2022-09-17T01:13:32.943Z,9.88
2022-09-17T01:18:59.967Z,10.23
2022-09-17T01:24:51.182Z,9.35
2022-09-17T01:30:22.747Z,9.35
2022-09-17T01:35:39.442Z,8.85
2022-09-17T01:40:51.780Z,8.87
2022-09-17T01:46:05.368Z,10.63
2022-09-17T01:51:16.296Z,11.23
2022-09-17T01:56:26.015Z,9.63
2022-09-17T02:01:33.192Z,9.45
2022-09-17T02:06:43.059Z,7.97
2022-09-17T02:11:56.356Z,8.43
2022-09-17T02:17:10.851Z,12.40
2022-09-17T02:22:24.817Z,9.25
2022-09-17T02:27:46.127Z,8.32
2022-09-17T02:32:50.160Z,7.32
2022-09-17T02:37:54.950Z,9.65
2022-09-17T02:43:15.411Z,7.80
2022-09-17T02:48:57.770Z,7.20
2022-09-17T02:54:18.719Z,6.72
2022-09-17T02:59:31.417Z,6.63
2022-09-17T03:04:36.375Z,9.85
2022-09-17T03:09:43.462Z,6.95
2022-09-17T03:14:47.047Z,7.30
2022-09-17T03:19:50.578Z,7.43
2022-09-17T03:24:55.477Z,7.45
2022-09-17T03:29:59.523Z,6.78
2022-09-17T03:35:03.129Z,6.25
2022-09-17T03:40:10.485Z,7.18
2022-09-17T03:45:14.488Z,6.32
2022-09-17T03:50:18.431Z,6.95
2022-09-17T03:55:23.289Z,5.95
2022-09-17T04:00:26.868Z,7.65
2022-09-17T04:05:30.498Z,5.95
2022-09-17T04:10:35.446Z,5.55
2022-09-17T04:15:39.897Z,7.28
2022-09-17T04:20:44.223Z,5.38
2022-09-17T04:25:49.098Z,7.10
2022-09-17T04:30:52.785Z,7.63
2022-09-17T04:35:56.303Z,6.88
2022-09-17T04:41:01.225Z,6.97
2022-09-17T04:46:04.921Z,7.85
2022-09-17T04:51:08.521Z,7.10
2022-09-17T04:56:13.423Z,5.55
2022-09-17T05:01:18.864Z,7.25
2022-09-17T05:06:22.479Z,5.70
2022-09-17T05:11:27.533Z,4.82
2022-09-17T05:16:31.156Z,4.65
2022-09-17T05:21:34.775Z,5.00
2022-09-17T05:26:39.644Z,5.47
2022-09-17T05:31:43.246Z,5.85
2022-09-17T05:36:46.832Z,4.38
2022-09-17T05:41:51.806Z,3.38
2022-09-17T05:46:55.709Z,6.03
2022-09-17T05:51:59.324Z,3.97
2022-09-17T05:57:04.452Z,4.53
2022-09-17T06:02:08.367Z,4.25
2022-09-17T06:07:11.944Z,4.93
2022-09-17T06:12:16.766Z,4.97
2022-09-17T06:17:22.192Z,4.65
2022-09-17T06:22:26.103Z,5.28
2022-09-17T06:27:33.869Z,4.53
2022-09-17T06:32:37.389Z,5.05
2022-09-17T06:37:41.256Z,4.70
2022-09-17T06:42:46.065Z,5.95
2022-09-17T06:47:49.617Z,5.00
2022-09-17T06:52:55.816Z,4.65
2022-09-17T06:58:02.087Z,2.85
2022-09-17T07:03:05.858Z,3.83
2022-09-17T07:08:10.932Z,5.63
2022-09-17T07:13:16.540Z,9.30
2022-09-17T07:18:20.095Z,12.00
2022-09-17T07:23:25.355Z,7.10
2022-09-17T07:28:31.203Z,8.60
2022-09-17T07:33:37.570Z,8.75
2022-09-17T07:38:41.153Z,5.55
2022-09-17T07:43:46.614Z,8.88
2022-09-17T07:48:51.844Z,4.43
2022-09-17T07:53:57.882Z,5.07
2022-09-17T07:59:04.615Z,7.35
2022-09-17T08:04:08.619Z,10.60
2022-09-17T08:09:12.811Z,5.93
2022-09-17T08:14:18.322Z,11.18
2022-09-17T08:19:22.293Z,11.15
2022-09-17T08:24:25.978Z,5.70
2022-09-17T08:29:34.983Z,7.43
2022-09-17T08:34:38.892Z,7.93
2022-09-17T08:39:42.534Z,5.57
2022-09-17T08:44:52.083Z,4.30
2022-09-17T08:50:00.039Z,5.10
2022-09-17T08:55:21.096Z,6.30
2022-09-17T09:00:27.040Z,7.85
2022-09-17T09:05:36.109Z,6.47
2022-09-17T09:10:52.829Z,7.70
2022-09-17T09:16:02.805Z,8.57
2022-09-17T09:21:26.075Z,8.27
2022-09-17T09:26:45.781Z,9.30
2022-09-17T09:32:16.425Z,9.40
2022-09-17T09:37:28.136Z,7.25
2022-09-17T09:42:36.169Z,8.52
2022-09-17T09:47:56.300Z,7.45
2022-09-17T09:53:13.568Z,8.80
2022-09-17T09:58:33.126Z,11.73
2022-09-17T10:03:43.113Z,15.00
2022-09-17T10:09:16.585Z,15.93
2022-09-17T10:14:27.511Z,17.40
2022-09-17T10:19:32.466Z,22.50
2022-09-17T10:24:36.604Z,14.80
2022-09-17T10:29:46.005Z,14.15
2022-09-17T10:35:05.371Z,13.45
2022-09-17T10:40:31.402Z,16.05
2022-09-17T10:45:43.566Z,15.13
2022-09-17T10:50:55.785Z,15.35
2022-09-17T10:56:14.247Z,13.40
2022-09-17T11:01:39.080Z,11.10
2022-09-17T11:07:35.616Z,11.90
2022-09-17T11:13:06.266Z,15.75
2022-09-17T11:18:38.905Z,13.80
2022-09-17T11:24:20.446Z,9.43
2022-09-17T11:29:49.568Z,11.32
2022-09-17T11:35:01.597Z,9.27
2022-09-17T11:40:16.855Z,8.57
2022-09-17T11:45:26.434Z,6.43
2022-09-17T11:50:36.747Z,6.65
2022-09-17T11:55:50.631Z,7.53
2022-09-17T12:01:04.099Z,7.15
2022-09-17T12:06:14.851Z,5.20
2022-09-17T12:11:25.033Z,6.18
2022-09-17T12:16:37.798Z,5.45
2022-09-17T12:21:48.005Z,7.28
2022-09-17T12:27:17.209Z,5.68
2022-09-17T12:33:03.077Z,6.15
2022-09-17T12:38:51.285Z,5.30
2022-09-17T12:44:20.680Z,5.97
2022-09-17T12:49:54.595Z,5.53
2022-09-17T12:55:31.286Z,6.68
2022-09-17T13:00:43.383Z,5.70
2022-09-17T13:06:54.722Z,5.45
2022-09-17T13:12:21.975Z,4.82
2022-09-17T13:17:35.205Z,5.80
2022-09-17T13:22:47.620Z,4.80
2022-09-17T13:28:06.702Z,4.78
2022-09-17T13:33:11.756Z,6.55
2022-09-17T13:38:16.460Z,5.30
2022-09-17T13:43:27.961Z,8.30
2022-09-17T13:48:36.232Z,3.65
2022-09-17T13:53:39.869Z,4.85
2022-09-17T13:58:43.542Z,7.25
2022-09-17T14:03:57.127Z,10.13
2022-09-17T14:09:00.886Z,3.72
2022-09-17T14:14:49.023Z,5.25
2022-09-17T14:19:55.486Z,7.57
2022-09-17T14:25:00.411Z,10.10
2022-09-17T14:30:19.572Z,5.28
2022-09-17T14:35:32.903Z,5.32
2022-09-17T14:40:37.156Z,7.10
2022-09-17T14:45:43.707Z,4.72
2022-09-17T14:50:48.806Z,6.78
2022-09-17T14:55:52.812Z,39.35
2022-09-17T15:00:56.634Z,26.52
2022-09-17T15:06:01.463Z,18.35
2022-09-17T15:11:12.327Z,14.80
2022-09-17T15:16:21.747Z,14.30
2022-09-17T15:21:34.683Z,13.73
2022-09-17T15:26:43.942Z,10.93
2022-09-17T15:31:47.674Z,10.82
2022-09-17T15:37:16.610Z,12.52
2022-09-17T15:42:24.227Z,13.68
2022-09-17T15:48:02.589Z,13.40
2022-09-17T15:53:25.182Z,12.10
2022-09-17T15:58:33.127Z,11.57
2022-09-17T16:04:18.289Z,13.75
2022-09-17T16:30:59.513Z,9.68
2022-09-17T16:36:04.709Z,8.15
2022-09-17T16:41:11.714Z,11.60
2022-09-17T16:52:15.659Z,9.35
2022-09-17T16:57:19.225Z,5.95
2022-09-17T17:02:22.859Z,7.35
2022-09-17T17:07:27.741Z,7.15
2022-09-17T17:12:31.993Z,7.28
2022-09-17T17:17:35.907Z,8.27
2022-09-17T17:22:41.782Z,5.28
2022-09-17T17:27:45.453Z,7.90
2022-09-17T17:32:53.440Z,5.10
2022-09-17T17:37:59.035Z,5.63
2022-09-17T17:43:02.612Z,6.35
2022-09-17T17:48:06.415Z,5.50
2022-09-17T17:53:11.281Z,4.97
2022-09-17T17:58:14.841Z,5.68
2022-09-17T18:03:18.384Z,5.05
2022-09-17T18:08:23.910Z,5.50
2022-09-17T18:13:27.873Z,7.18
2022-09-17T18:18:37.954Z,5.05
2022-09-17T18:23:45.996Z,5.00
2022-09-17T18:28:51.249Z,7.03
2022-09-17T18:33:58.971Z,8.90
2022-09-17T18:44:30.175Z,41.13
2022-09-17T18:49:33.773Z,49.20
2022-09-17T18:54:38.813Z,53.17
2022-09-17T18:59:42.506Z,53.78
2022-09-17T19:04:46.131Z,42.80
2022-09-17T19:09:51.070Z,41.80
2022-09-17T19:14:55.185Z,42.83
2022-09-17T19:19:58.687Z,40.10
2022-09-17T19:25:03.649Z,37.90
2022-09-17T19:30:09.418Z,34.58
2022-09-17T19:35:13.090Z,36.33
2022-09-17T19:40:18.688Z,34.00
2022-09-17T19:45:22.977Z,31.83
2022-09-17T19:50:26.513Z,30.67
2022-09-17T19:55:31.408Z,28.98
2022-09-17T20:00:36.818Z,28.63
2022-09-17T20:05:40.653Z,25.00
2022-09-17T20:10:45.479Z,27.73
2022-09-17T20:15:49.181Z,23.63
2022-09-17T20:20:52.776Z,22.83
2022-09-17T20:25:57.735Z,21.50
2022-09-17T20:31:03.630Z,23.17
2022-09-17T20:36:11.920Z,22.67
2022-09-17T20:41:17.955Z,22.27
2022-09-17T20:46:28.982Z,18.67
2022-09-17T20:51:33.990Z,19.70
2022-09-17T20:56:39.113Z,18.38
2022-09-17T21:01:45.540Z,18.45
2022-09-17T21:06:53.899Z,18.00
2022-09-17T21:11:58.897Z,18.10
2022-09-17T21:17:02.566Z,18.77
2022-09-17T21:22:06.273Z,18.95
2022-09-17T21:27:11.281Z,17.60
2022-09-17T21:32:14.753Z,20.55
2022-09-17T21:37:18.517Z,17.17
2022-09-17T21:42:23.423Z,14.10
2022-09-17T21:47:26.876Z,14.15
2022-09-17T21:52:30.569Z,16.20
2022-09-17T21:57:35.328Z,15.05
2022-09-17T22:02:39.150Z,12.75
2022-09-17T22:07:42.705Z,12.80
2022-09-17T22:12:47.561Z,12.55
2022-09-17T22:17:51.110Z,14.90
2022-09-17T22:22:54.626Z,16.15
2022-09-17T22:28:19.856Z,14.98
2022-09-17T22:33:23.514Z,15.18
2022-09-17T22:38:27.339Z,15.43
2022-09-17T22:43:32.309Z,14.45
2022-09-17T22:48:35.879Z,14.35
2022-09-17T22:53:42.952Z,13.85
2022-09-17T22:58:49.013Z,15.63
2022-09-17T23:03:53.876Z,15.10
2022-09-17T23:08:57.804Z,14.82
2022-09-17T23:14:06.657Z,14.90
2022-09-17T23:19:11.810Z,14.68
2022-09-17T23:24:20.275Z,16.05
2022-09-17T23:29:25.233Z,15.88
2022-09-17T23:34:28.755Z,16.77
2022-09-17T23:39:32.617Z,15.18
2022-09-17T23:44:37.707Z,15.90
2022-09-17T23:49:41.253Z,14.98
2022-09-17T23:54:44.838Z,16.35
2022-09-17T23:59:49.815Z,13.50
